createdAt,value
2023-02-21T00:01:12.842Z,36.25
2023-02-21T00:03:58.973Z,25.60
2023-02-21T00:06:44.798Z,21.25
2023-02-21T00:09:30.711Z,17.33
2023-02-21T00:12:16.592Z,15.40
2023-02-21T00:15:02.829Z,14.52
2023-02-21T00:17:49.070Z,12.20
2023-02-21T00:20:35.576Z,12.02
2023-02-21T00:23:21.253Z,10.63
2023-02-21T00:26:07.220Z,10.63
2023-02-21T00:28:53.242Z,8.82
2023-02-21T00:31:39.207Z,8.60
2023-02-21T00:34:25.296Z,8.23
2023-02-21T00:37:12.048Z,8.02
2023-02-21T00:39:58.555Z,7.18
2023-02-21T00:42:44.640Z,8.05
2023-02-21T00:45:30.373Z,8.05
2023-02-21T00:48:17.886Z,8.57
2023-02-21T00:51:04.183Z,8.98
2023-02-21T00:53:50.032Z,9.82
2023-02-21T00:56:36.244Z,11.02
2023-02-21T00:59:22.280Z,11.40
2023-02-21T01:02:08.467Z,11.02
2023-02-21T01:04:54.374Z,11.70
2023-02-21T01:07:40.329Z,11.55
2023-02-21T01:10:28.518Z,11.45
2023-02-21T01:13:15.103Z,11.43
2023-02-21T01:16:00.978Z,11.57
2023-02-21T01:18:47.364Z,11.38
2023-02-21T01:21:35.884Z,10.88
2023-02-21T01:24:24.025Z,10.30
2023-02-21T01:27:10.279Z,10.63
2023-02-21T01:29:57.678Z,10.82
2023-02-21T01:32:44.658Z,10.73
2023-02-21T01:35:30.479Z,10.57
2023-02-21T01:38:16.942Z,11.20
2023-02-21T01:41:03.366Z,10.70
2023-02-21T01:43:49.851Z,10.23
2023-02-21T01:46:38.329Z,9.93
2023-02-21T01:49:37.173Z,8.88
2023-02-21T01:52:24.168Z,8.98
2023-02-21T01:55:13.998Z,8.63
2023-02-21T01:58:00.551Z,8.50
2023-02-21T02:00:47.288Z,8.15
2023-02-21T02:03:36.162Z,8.00
2023-02-21T02:06:26.649Z,7.40
2023-02-21T02:09:12.990Z,7.13
2023-02-21T02:12:14.036Z,7.85
2023-02-21T02:14:54.957Z,7.35
2023-02-21T02:17:51.346Z,7.65
2023-02-21T02:20:41.516Z,7.35
2023-02-21T02:23:30.287Z,7.93
2023-02-21T02:26:16.247Z,7.90
2023-02-21T02:29:05.413Z,7.57
2023-02-21T02:31:57.992Z,6.78
2023-02-21T02:34:52.922Z,6.97
2023-02-21T02:37:35.429Z,7.05
2023-02-21T02:40:25.424Z,6.30
2023-02-21T02:42:52.856Z,6.88
2023-02-21T02:45:51.882Z,6.45
2023-02-21T02:48:25.131Z,6.07
2023-02-21T02:50:54.101Z,6.22
2023-02-21T02:53:27.191Z,6.45
2023-02-21T02:56:05.522Z,6.30
2023-02-21T02:58:44.904Z,6.82
2023-02-21T03:01:37.350Z,7.07
2023-02-21T03:04:32.709Z,7.13
2023-02-21T03:07:06.327Z,5.72
2023-02-21T03:10:03.508Z,6.10
2023-02-21T03:13:14.399Z,5.93
2023-02-21T03:16:04.616Z,5.68
2023-02-21T03:18:52.828Z,5.20
2023-02-21T03:21:29.442Z,5.13
2023-02-21T03:24:01.463Z,4.90
2023-02-21T03:26:33.831Z,4.10
2023-02-21T03:29:16.432Z,6.38
2023-02-21T03:31:49.251Z,5.40
2023-02-21T03:34:17.393Z,3.88
2023-02-21T03:36:45.545Z,3.20
2023-02-21T03:39:15.190Z,3.65
2023-02-21T03:41:42.862Z,3.15
2023-02-21T03:44:10.525Z,3.25
2023-02-21T03:46:40.815Z,3.30
2023-02-21T03:49:08.850Z,4.28
2023-02-21T03:51:36.538Z,3.63
2023-02-21T03:54:04.363Z,3.33
2023-02-21T03:56:42.141Z,3.25
2023-02-21T03:59:26.880Z,5.15
2023-02-21T04:01:55.309Z,3.65
2023-02-21T04:04:24.628Z,3.28
2023-02-21T04:07:01.329Z,4.43
2023-02-21T04:09:29.433Z,3.53
2023-02-21T04:11:57.328Z,3.20
2023-02-21T04:14:26.053Z,3.92
2023-02-21T04:16:54.998Z,3.42
2023-02-21T04:19:23.230Z,2.92
2023-02-21T04:21:50.925Z,2.83
2023-02-21T04:24:18.559Z,3.28
2023-02-21T04:26:46.123Z,3.67
2023-02-21T04:29:13.880Z,3.47
2023-02-21T04:31:41.998Z,4.05
2023-02-21T04:34:16.533Z,5.47
2023-02-21T04:36:45.533Z,3.88
2023-02-21T04:39:14.165Z,3.25
2023-02-21T04:41:41.930Z,3.58
2023-02-21T04:44:10.442Z,3.30
2023-02-21T04:46:38.024Z,5.57
2023-02-21T04:49:06.284Z,3.60
2023-02-21T04:51:33.960Z,2.58
2023-02-21T04:54:01.538Z,3.67
2023-02-21T04:56:29.453Z,2.80
2023-02-21T04:58:57.657Z,3.10
2023-02-21T05:01:29.248Z,2.80
2023-02-21T05:03:57.414Z,3.40
2023-02-21T05:06:27.632Z,3.20
2023-02-21T05:08:55.264Z,2.90
2023-02-21T05:11:23.749Z,4.13
2023-02-21T05:13:51.659Z,4.38
2023-02-21T05:16:20.205Z,3.50
2023-02-21T05:18:52.147Z,4.15
2023-02-21T05:21:20.490Z,4.10
2023-02-21T05:23:57.034Z,4.68
2023-02-21T05:26:27.833Z,3.45
2023-02-21T05:28:55.498Z,4.00
2023-02-21T05:31:23.154Z,3.90
2023-02-21T05:33:50.761Z,5.18
2023-02-21T05:36:18.495Z,4.65
2023-02-21T05:38:52.369Z,3.50
2023-02-21T05:41:20.558Z,5.10
2023-02-21T05:43:49.775Z,3.80
2023-02-21T05:46:26.281Z,3.55
2023-02-21T05:48:55.389Z,3.72
2023-02-21T05:51:23.574Z,3.08
2023-02-21T05:53:51.823Z,3.80
2023-02-21T05:56:20.477Z,9.60
2023-02-21T05:58:48.155Z,5.15
2023-02-21T06:01:16.107Z,3.58
2023-02-21T06:03:43.961Z,12.88
2023-02-21T06:06:11.547Z,7.05
2023-02-21T06:08:57.344Z,6.43
2023-02-21T06:11:28.457Z,7.90
2023-02-21T06:13:57.829Z,5.60
2023-02-21T06:16:25.496Z,4.07
2023-02-21T06:18:54.778Z,5.80
2023-02-21T06:21:22.919Z,4.10
2023-02-21T06:23:50.479Z,9.40
2023-02-21T06:26:21.248Z,11.05
2023-02-21T06:28:49.618Z,4.95
2023-02-21T06:31:18.686Z,3.97
2023-02-21T06:34:14.026Z,4.68
2023-02-21T06:36:41.902Z,3.90
2023-02-21T06:39:10.761Z,3.50
2023-02-21T06:41:38.686Z,3.20
2023-02-21T06:44:06.265Z,5.38
2023-02-21T06:46:36.420Z,5.43
2023-02-21T06:49:05.079Z,3.58
2023-02-21T06:51:41.042Z,7.88
2023-02-21T06:54:09.642Z,7.60
2023-02-21T06:56:37.247Z,5.35
2023-02-21T06:59:05.272Z,4.20
2023-02-21T07:01:33.087Z,3.03
2023-02-21T07:04:00.768Z,3.15
2023-02-21T07:06:29.863Z,3.22
2023-02-21T07:08:57.813Z,3.20
2023-02-21T07:11:25.694Z,9.02
2023-02-21T07:13:54.356Z,2.58
2023-02-21T07:16:21.950Z,4.45
2023-02-21T07:18:49.708Z,4.30
2023-02-21T07:21:19.868Z,4.38
2023-02-21T07:23:48.112Z,4.38
2023-02-21T07:26:16.142Z,5.10
2023-02-21T07:28:43.849Z,4.07
2023-02-21T07:31:11.547Z,4.15
2023-02-21T07:33:39.189Z,3.97
2023-02-21T07:36:07.127Z,3.53
2023-02-21T07:38:34.632Z,3.83
2023-02-21T07:41:03.766Z,7.50
2023-02-21T07:43:32.189Z,7.78
2023-02-21T07:45:59.852Z,4.13
2023-02-21T07:48:27.816Z,8.02
2023-02-21T07:50:55.390Z,5.43
2023-02-21T07:53:22.950Z,6.22
2023-02-21T07:55:51.029Z,6.18
2023-02-21T07:58:21.239Z,3.00
2023-02-21T08:00:49.513Z,4.10
2023-02-21T08:03:17.001Z,3.38
2023-02-21T08:05:46.058Z,4.68
2023-02-21T08:08:16.576Z,3.08
2023-02-21T08:10:44.240Z,2.90
2023-02-21T08:13:12.069Z,3.15
2023-02-21T08:15:45.523Z,2.72
2023-02-21T08:18:24.502Z,2.88
2023-02-21T08:20:53.731Z,6.25
2023-02-21T08:23:21.890Z,3.28
2023-02-21T08:25:49.942Z,3.00
2023-02-21T08:28:17.853Z,3.55
2023-02-21T08:30:45.476Z,3.38
2023-02-21T08:33:13.016Z,3.08
2023-02-21T08:35:40.584Z,3.40
2023-02-21T08:38:08.584Z,3.30
2023-02-21T08:40:36.336Z,2.78
2023-02-21T08:43:05.454Z,2.88
2023-02-21T08:45:33.245Z,2.90
2023-02-21T08:48:00.905Z,2.80
2023-02-21T08:50:29.824Z,3.28
2023-02-21T08:52:57.544Z,2.90
2023-02-21T08:55:27.313Z,3.22
2023-02-21T08:57:54.971Z,2.92
2023-02-21T09:00:24.646Z,3.05
2023-02-21T09:02:52.768Z,3.33
2023-02-21T09:05:24.701Z,2.75
2023-02-21T09:07:55.460Z,3.60
2023-02-21T09:10:23.053Z,5.90
2023-02-21T09:12:50.683Z,3.10
2023-02-21T09:15:18.777Z,2.80
2023-02-21T09:17:46.369Z,3.15
2023-02-21T09:20:21.102Z,2.85
2023-02-21T09:22:48.749Z,2.33
2023-02-21T09:25:22.967Z,3.10
2023-02-21T09:27:53.261Z,2.80
2023-02-21T09:30:26.342Z,3.88
2023-02-21T09:32:55.015Z,2.53
2023-02-21T09:35:23.291Z,3.10
2023-02-21T09:37:51.287Z,2.67
2023-02-21T09:40:54.046Z,3.13
2023-02-21T09:43:36.798Z,3.00
2023-02-21T09:46:30.728Z,3.05
2023-02-21T09:48:58.865Z,3.05
2023-02-21T09:51:26.728Z,2.80
2023-02-21T09:53:57.813Z,3.15
2023-02-21T09:56:25.309Z,2.95
2023-02-21T09:58:52.849Z,2.83
2023-02-21T10:01:24.843Z,2.92
2023-02-21T10:04:15.113Z,2.85
2023-02-21T10:06:45.471Z,2.70
2023-02-21T10:09:27.579Z,3.15
2023-02-21T10:12:34.284Z,2.63
2023-02-21T10:15:36.112Z,2.60
2023-02-21T10:18:06.960Z,3.20
2023-02-21T10:20:54.879Z,2.90
2023-02-21T10:23:33.287Z,3.10
2023-02-21T10:26:12.875Z,14.18
2023-02-21T10:28:40.484Z,2.50
2023-02-21T10:31:18.993Z,2.97
2023-02-21T10:33:46.877Z,2.63
2023-02-21T10:36:23.382Z,2.90
2023-02-21T10:38:58.202Z,3.00
2023-02-21T10:41:31.227Z,3.00
2023-02-21T10:44:07.650Z,2.50
2023-02-21T10:46:42.683Z,3.05
2023-02-21T10:49:40.095Z,2.88
2023-02-21T10:52:19.473Z,2.60
2023-02-21T10:55:10.600Z,2.90
2023-02-21T10:57:45.400Z,3.33
2023-02-21T11:00:36.568Z,3.10
2023-02-21T11:03:27.544Z,3.20
2023-02-21T11:05:58.679Z,2.95
2023-02-21T11:08:38.758Z,2.88
2023-02-21T11:11:07.355Z,3.00
2023-02-21T11:13:36.674Z,2.92
2023-02-21T11:16:11.830Z,2.50
2023-02-21T11:18:39.492Z,2.83
2023-02-21T11:21:16.884Z,3.35
2023-02-21T11:24:06.444Z,3.20
2023-02-21T11:26:45.702Z,3.20
2023-02-21T11:29:27.245Z,3.55
2023-02-21T11:31:56.319Z,2.90
2023-02-21T11:34:29.824Z,3.45
2023-02-21T11:37:03.559Z,3.30
2023-02-21T11:39:34.340Z,2.95
2023-02-21T11:42:08.714Z,3.45
2023-02-21T11:44:43.209Z,3.80
2023-02-21T11:47:28.529Z,3.45
2023-02-21T11:50:24.296Z,3.65
2023-02-21T11:53:04.234Z,3.60
2023-02-21T11:55:35.570Z,3.80
2023-02-21T11:59:01.588Z,3.72
2023-02-21T12:01:47.156Z,3.88
2023-02-21T12:04:37.973Z,3.28
2023-02-21T12:07:11.162Z,3.10
2023-02-21T12:09:46.008Z,3.28
2023-02-21T12:12:42.457Z,3.10
2023-02-21T12:15:24.886Z,3.00
2023-02-21T12:18:16.340Z,2.55
2023-02-21T12:21:10.882Z,4.88
2023-02-21T12:23:55.589Z,3.03
2023-02-21T12:26:32.613Z,3.50
2023-02-21T12:29:29.288Z,3.20
2023-02-21T12:32:15.781Z,2.97
2023-02-21T12:35:15.245Z,2.90
2023-02-21T12:37:54.604Z,2.80
2023-02-21T12:40:25.925Z,2.78
2023-02-21T12:43:18.043Z,2.95
2023-02-21T12:46:06.741Z,2.88
2023-02-21T12:48:44.357Z,2.40
2023-02-21T12:51:18.254Z,3.63
2023-02-21T12:54:04.546Z,3.08
2023-02-21T12:56:57.341Z,2.75
2023-02-21T12:59:47.561Z,2.92
2023-02-21T13:02:36.663Z,2.83
2023-02-21T13:05:16.412Z,2.75
2023-02-21T13:07:52.407Z,2.70
2023-02-21T13:10:49.769Z,2.90
2023-02-21T13:13:24.232Z,3.00
2023-02-21T13:15:54.188Z,3.63
2023-02-21T13:18:27.417Z,3.13
2023-02-21T13:21:02.573Z,3.20
2023-02-21T13:24:07.830Z,3.15
2023-02-21T13:29:32.947Z,3.53
2023-02-21T13:34:37.688Z,3.22
2023-02-21T13:37:08.184Z,3.10
2023-02-21T13:39:37.636Z,3.03
2023-02-21T13:42:10.022Z,3.15
2023-02-21T13:44:47.649Z,4.10
2023-02-21T13:47:17.940Z,2.90
2023-02-21T13:49:50.899Z,2.75
2023-02-21T13:52:24.047Z,2.70
2023-02-21T13:55:10.109Z,3.17
2023-02-21T13:57:43.482Z,2.78
2023-02-21T14:00:24.336Z,2.80
2023-02-21T14:03:00.838Z,3.22
2023-02-21T14:05:50.147Z,2.60
2023-02-21T14:08:32.501Z,2.97
2023-02-21T14:11:05.849Z,2.67
2023-02-21T14:13:36.529Z,2.80
2023-02-21T14:16:19.734Z,2.67
2023-02-21T14:19:12.644Z,3.00
2023-02-21T14:21:46.885Z,6.85
2023-02-21T14:24:25.561Z,2.80
2023-02-21T14:26:53.051Z,7.32
2023-02-21T14:29:42.654Z,4.80
2023-02-21T14:32:10.294Z,3.15
2023-02-21T14:34:48.719Z,2.88
2023-02-21T14:37:24.283Z,4.35
2023-02-21T14:39:57.694Z,2.72
2023-02-21T14:42:54.820Z,3.42
2023-02-21T14:45:31.235Z,4.10
2023-02-21T14:48:09.092Z,2.83
2023-02-21T14:50:58.518Z,2.47
2023-02-21T14:53:55.411Z,2.83
2023-02-21T14:56:25.620Z,2.75
2023-02-21T14:59:08.143Z,2.75
2023-02-21T15:01:41.470Z,2.85
2023-02-21T15:04:11.929Z,2.43
2023-02-21T15:06:43.797Z,2.70
2023-02-21T15:09:20.221Z,2.60
2023-02-21T15:11:48.963Z,3.00
2023-02-21T15:14:26.744Z,2.70
2023-02-21T15:17:00.148Z,2.80
2023-02-21T15:19:31.810Z,2.53
2023-02-21T15:22:25.024Z,2.83
2023-02-21T15:25:07.857Z,2.50
2023-02-21T15:27:36.696Z,2.60
2023-02-21T15:30:15.696Z,2.30
2023-02-21T15:32:56.111Z,2.60
2023-02-21T15:35:30.372Z,3.58
2023-02-21T15:37:59.654Z,2.70
2023-02-21T15:40:28.803Z,5.28
2023-02-21T15:42:56.552Z,2.60
2023-02-21T15:45:30.444Z,2.83
2023-02-21T15:48:01.592Z,2.75
2023-02-21T15:50:38.191Z,8.57
2023-02-21T15:53:20.608Z,8.10
2023-02-21T15:55:51.010Z,5.53
2023-02-21T15:58:27.202Z,7.07
2023-02-21T16:01:09.576Z,3.60
2023-02-21T16:03:49.037Z,8.98
2023-02-21T16:06:27.988Z,3.47
2023-02-21T16:08:59.217Z,4.28
2023-02-21T16:11:43.140Z,3.95
2023-02-21T16:14:17.649Z,5.67
2023-02-21T16:16:46.229Z,3.97
2023-02-21T16:19:13.849Z,2.97
2023-02-21T16:21:41.470Z,3.20
2023-02-21T16:24:31.978Z,5.80
2023-02-21T16:27:06.303Z,6.10
2023-02-21T16:29:34.614Z,3.10
2023-02-21T16:32:03.196Z,2.70
2023-02-21T16:34:33.914Z,3.85
2023-02-21T16:37:07.739Z,2.72
2023-02-21T16:39:36.287Z,2.70
2023-02-21T16:42:04.558Z,3.03
2023-02-21T16:44:32.196Z,3.17
2023-02-21T16:46:59.972Z,6.60
2023-02-21T16:49:27.503Z,6.60
2023-02-21T16:51:55.345Z,6.50
2023-02-21T16:54:23.075Z,6.63
2023-02-21T16:56:53.467Z,3.50
2023-02-21T16:59:24.720Z,3.38
2023-02-21T17:01:52.806Z,3.47
2023-02-21T17:04:24.060Z,3.15
2023-02-21T17:06:57.421Z,2.90
2023-02-21T17:09:27.607Z,3.20
2023-02-21T17:11:55.548Z,2.83
2023-02-21T17:14:23.081Z,3.30
2023-02-21T17:16:50.621Z,3.20
2023-02-21T17:19:21.238Z,3.10
2023-02-21T17:21:49.091Z,3.72
2023-02-21T17:24:16.888Z,3.42
2023-02-21T17:26:44.868Z,4.15
2023-02-21T17:29:12.520Z,11.15
2023-02-21T17:31:40.430Z,20.77
2023-02-21T17:34:08.244Z,7.40
2023-02-21T17:36:35.820Z,17.35
2023-02-21T17:39:06.854Z,9.30
2023-02-21T17:41:34.853Z,10.60
2023-02-21T17:44:02.597Z,4.00
2023-02-21T17:46:32.105Z,4.30
2023-02-21T17:48:59.924Z,3.28
2023-02-21T17:51:30.263Z,3.47
2023-02-21T17:53:58.104Z,3.60
2023-02-21T17:56:25.949Z,3.55
2023-02-21T17:58:55.199Z,3.75
2023-02-21T18:01:23.369Z,3.88
2023-02-21T18:03:51.695Z,3.72
2023-02-21T18:06:21.621Z,3.70
2023-02-21T18:08:49.526Z,10.63
2023-02-21T18:11:18.018Z,15.63
2023-02-21T18:13:48.098Z,56.42
2023-02-21T18:16:16.106Z,29.98
2023-02-21T18:18:44.200Z,19.65
2023-02-21T18:21:12.639Z,11.90
2023-02-21T18:23:46.316Z,12.23
2023-02-21T18:26:13.999Z,13.02
2023-02-21T18:28:41.970Z,12.93
2023-02-21T18:31:10.965Z,13.48
2023-02-21T18:33:38.966Z,19.17
2023-02-21T18:36:09.150Z,9.90
2023-02-21T18:38:40.422Z,9.52
2023-02-21T18:41:14.891Z,9.48
2023-02-21T18:43:44.194Z,21.27
2023-02-21T18:46:15.594Z,27.83
2023-02-21T18:48:48.313Z,32.42
2023-02-21T18:51:19.946Z,38.30
2023-02-21T18:53:49.022Z,21.98
2023-02-21T18:56:21.640Z,24.00
2023-02-21T18:58:49.963Z,28.52
2023-02-21T19:01:20.769Z,18.65
2023-02-21T19:03:55.813Z,59.22
2023-02-21T19:06:25.043Z,18.80
2023-02-21T19:08:54.344Z,31.20
2023-02-21T19:11:22.279Z,43.58
2023-02-21T19:13:50.519Z,35.28
2023-02-21T19:16:19.828Z,53.13
2023-02-21T19:18:54.051Z,29.58
2023-02-21T19:21:23.287Z,26.58
2023-02-21T19:23:51.625Z,25.27
2023-02-21T19:26:19.633Z,21.13
2023-02-21T19:28:47.877Z,45.60
2023-02-21T19:31:19.522Z,30.95
2023-02-21T19:33:47.776Z,31.55
2023-02-21T19:36:16.312Z,28.25
2023-02-21T19:38:44.240Z,26.88
2023-02-21T19:41:12.061Z,39.42
2023-02-21T19:43:39.973Z,44.22
2023-02-21T19:46:22.669Z,29.45
2023-02-21T19:48:51.572Z,17.63
2023-02-21T19:51:22.232Z,8.68
2023-02-21T19:53:50.308Z,12.65
2023-02-21T19:56:21.685Z,8.82
2023-02-21T19:58:49.490Z,8.23
2023-02-21T20:01:17.721Z,9.30
2023-02-21T20:03:50.500Z,17.70
2023-02-21T20:06:19.059Z,29.35
2023-02-21T20:08:48.432Z,35.70
2023-02-21T20:11:20.922Z,20.33
2023-02-21T20:13:49.631Z,14.05
2023-02-21T20:16:20.293Z,12.05
2023-02-21T20:18:51.817Z,16.55
2023-02-21T20:21:21.834Z,10.90
2023-02-21T20:23:49.728Z,8.73
2023-02-21T20:26:17.576Z,12.93
2023-02-21T20:28:47.888Z,10.52
2023-02-21T20:31:16.590Z,8.63
2023-02-21T20:33:44.385Z,7.45
2023-02-21T20:36:13.924Z,16.88
2023-02-21T20:38:42.260Z,35.70
2023-02-21T20:41:13.813Z,25.00
2023-02-21T20:43:41.819Z,11.50
2023-02-21T20:46:11.753Z,8.43
2023-02-21T20:48:39.817Z,13.98
2023-02-21T20:51:08.015Z,14.88
2023-02-21T20:53:36.740Z,11.68
2023-02-21T20:56:05.203Z,31.10
2023-02-21T20:58:33.152Z,11.27
2023-02-21T21:01:00.992Z,13.90
2023-02-21T21:03:29.612Z,12.55
2023-02-21T21:05:57.798Z,13.73
2023-02-21T21:08:26.875Z,8.15
2023-02-21T21:10:54.762Z,5.47
2023-02-21T21:13:22.536Z,3.95
2023-02-21T21:15:50.318Z,7.70
2023-02-21T21:18:18.368Z,8.25
2023-02-21T21:20:46.466Z,5.65
2023-02-21T21:23:21.345Z,3.40
2023-02-21T21:25:48.936Z,3.78
2023-02-21T21:28:16.815Z,3.53
2023-02-21T21:30:45.113Z,3.60
2023-02-21T21:33:13.062Z,3.40
2023-02-21T21:35:40.780Z,3.75
2023-02-21T21:38:08.598Z,3.63
2023-02-21T21:40:36.501Z,3.10
2023-02-21T21:43:07.632Z,4.18
2023-02-21T21:45:44.488Z,3.80
2023-02-21T21:48:14.962Z,3.80
2023-02-21T21:50:43.246Z,3.65
2023-02-21T21:53:12.714Z,11.25
2023-02-21T21:55:40.370Z,4.20
2023-02-21T21:58:10.601Z,7.57
2023-02-21T22:00:42.032Z,7.80
2023-02-21T22:03:14.382Z,4.95
2023-02-21T22:05:45.792Z,4.00
2023-02-21T22:08:17.263Z,4.00
2023-02-21T22:10:46.184Z,4.03
2023-02-21T22:13:15.459Z,4.20
2023-02-21T22:15:44.231Z,4.40
2023-02-21T22:18:15.894Z,4.50
2023-02-21T22:20:49.758Z,4.00
2023-02-21T22:23:24.211Z,3.90
2023-02-21T22:25:52.015Z,11.15
2023-02-21T22:28:19.604Z,18.77
2023-02-21T22:30:47.421Z,15.18
2023-02-21T22:33:19.715Z,108.35
2023-02-21T22:35:47.430Z,70.65
2023-02-21T22:38:17.355Z,8.98
2023-02-21T22:40:46.289Z,9.55
2023-02-21T22:43:14.438Z,63.28
2023-02-21T22:45:49.659Z,21.77
2023-02-21T22:48:20.534Z,4.90
2023-02-21T22:50:48.726Z,4.20
2023-02-21T22:53:19.020Z,4.03
2023-02-21T22:55:52.389Z,4.30
2023-02-21T22:58:20.919Z,4.10
2023-02-21T23:00:49.533Z,4.30
2023-02-21T23:03:17.968Z,4.03
2023-02-21T23:05:48.254Z,4.60
2023-02-21T23:08:19.459Z,4.97
2023-02-21T23:10:48.133Z,5.10
2023-02-21T23:13:21.575Z,4.93
2023-02-21T23:15:49.547Z,6.15
2023-02-21T23:18:23.052Z,6.28
2023-02-21T23:20:53.652Z,6.93
2023-02-21T23:23:27.091Z,5.15
2023-02-21T23:25:58.940Z,7.47
2023-02-21T23:28:28.969Z,5.78
2023-02-21T23:30:58.137Z,6.15
2023-02-21T23:33:33.866Z,6.20
2023-02-21T23:36:01.477Z,5.25
2023-02-21T23:38:29.059Z,7.03
2023-02-21T23:40:59.028Z,6.13
2023-02-21T23:43:29.461Z,6.10
2023-02-21T23:45:58.461Z,6.20
2023-02-21T23:48:26.476Z,7.68
2023-02-21T23:50:57.753Z,6.00
2023-02-21T23:53:27.967Z,7.15
2023-02-21T23:56:00.683Z,6.38
2023-02-21T23:58:33.455Z,5.97
